sensor_id;sensor_type;location;lat;lon;timestamp;P1;durP1;ratioP1;P2;durP2;ratioP2
1691;SDS011;843;52.054;8.552;2022-10-31T00:01:23;25.03;;;16.67;;
1691;SDS011;843;52.054;8.552;2022-10-31T00:03:53;37.00;;;19.40;;
1691;SDS011;843;52.054;8.552;2022-10-31T00:06:20;34.07;;;18.50;;
1691;SDS011;843;52.054;8.552;2022-10-31T00:08:47;25.60;;;17.00;;
1691;SDS011;843;52.054;8.552;2022-10-31T00:11:15;29.80;;;17.57;;
1691;SDS011;843;52.054;8.552;2022-10-31T00:13:41;29.97;;;18.67;;
1691;SDS011;843;52.054;8.552;2022-10-31T00:16:12;26.50;;;17.77;;
1691;SDS011;843;52.054;8.552;2022-10-31T00:18:40;24.43;;;17.87;;
1691;SDS011;843;52.054;8.552;2022-10-31T00:21:06;30.77;;;17.50;;
1691;SDS011;843;52.054;8.552;2022-10-31T00:23:33;26.67;;;16.37;;
1691;SDS011;843;52.054;8.552;2022-10-31T00:26:00;29.87;;;19.23;;
1691;SDS011;843;52.054;8.552;2022-10-31T00:28:29;36.43;;;19.83;;
1691;SDS011;843;52.054;8.552;2022-10-31T00:30:58;34.50;;;18.17;;
1691;SDS011;843;52.054;8.552;2022-10-31T00:33:25;30.67;;;20.60;;
1691;SDS011;843;52.054;8.552;2022-10-31T00:35:51;31.27;;;21.17;;
1691;SDS011;843;52.054;8.552;2022-10-31T00:38:18;35.10;;;21.90;;
1691;SDS011;843;52.054;8.552;2022-10-31T00:40:45;34.23;;;22.77;;
1691;SDS011;843;52.054;8.552;2022-10-31T00:43:11;32.90;;;21.40;;
1691;SDS011;843;52.054;8.552;2022-10-31T00:45:39;35.93;;;22.80;;
1691;SDS011;843;52.054;8.552;2022-10-31T00:48:07;33.37;;;22.37;;
1691;SDS011;843;52.054;8.552;2022-10-31T00:50:33;36.50;;;23.43;;
1691;SDS011;843;52.054;8.552;2022-10-31T00:53:00;34.20;;;20.60;;
1691;SDS011;843;52.054;8.552;2022-10-31T00:55:27;42.33;;;23.10;;
1691;SDS011;843;52.054;8.552;2022-10-31T00:57:53;38.23;;;22.07;;
1691;SDS011;843;52.054;8.552;2022-10-31T01:00:20;34.83;;;23.40;;
1691;SDS011;843;52.054;8.552;2022-10-31T01:02:48;38.37;;;22.20;;
1691;SDS011;843;52.054;8.552;2022-10-31T01:05:14;36.40;;;23.00;;
1691;SDS011;843;52.054;8.552;2022-10-31T01:07:41;34.03;;;22.17;;
1691;SDS011;843;52.054;8.552;2022-10-31T01:10:08;47.03;;;26.03;;
1691;SDS011;843;52.054;8.552;2022-10-31T01:12:36;34.73;;;23.80;;
1691;SDS011;843;52.054;8.552;2022-10-31T01:15:03;30.40;;;19.90;;
1691;SDS011;843;52.054;8.552;2022-10-31T01:17:41;34.50;;;20.70;;
1691;SDS011;843;52.054;8.552;2022-10-31T01:20:09;27.33;;;17.30;;
1691;SDS011;843;52.054;8.552;2022-10-31T01:22:37;30.07;;;17.07;;
1691;SDS011;843;52.054;8.552;2022-10-31T01:25:04;27.90;;;19.00;;
1691;SDS011;843;52.054;8.552;2022-10-31T01:27:32;26.40;;;18.40;;
1691;SDS011;843;52.054;8.552;2022-10-31T01:29:59;35.07;;;21.30;;
1691;SDS011;843;52.054;8.552;2022-10-31T01:32:26;33.80;;;20.57;;
1691;SDS011;843;52.054;8.552;2022-10-31T01:34:53;30.30;;;20.40;;
1691;SDS011;843;52.054;8.552;2022-10-31T01:37:21;26.80;;;18.30;;
1691;SDS011;843;52.054;8.552;2022-10-31T01:39:48;30.87;;;20.23;;
1691;SDS011;843;52.054;8.552;2022-10-31T01:42:15;33.30;;;23.30;;
1691;SDS011;843;52.054;8.552;2022-10-31T01:44:53;32.33;;;20.63;;
1691;SDS011;843;52.054;8.552;2022-10-31T01:47:36;33.63;;;23.17;;
1691;SDS011;843;52.054;8.552;2022-10-31T01:50:06;36.20;;;24.63;;
1691;SDS011;843;52.054;8.552;2022-10-31T01:52:39;42.97;;;24.47;;
1691;SDS011;843;52.054;8.552;2022-10-31T01:55:09;39.77;;;24.90;;
1691;SDS011;843;52.054;8.552;2022-10-31T01:57:37;44.37;;;25.87;;
1691;SDS011;843;52.054;8.552;2022-10-31T02:00:07;37.67;;;25.47;;
1691;SDS011;843;52.054;8.552;2022-10-31T02:02:45;39.27;;;24.00;;
1691;SDS011;843;52.054;8.552;2022-10-31T02:05:14;33.40;;;22.73;;
1691;SDS011;843;52.054;8.552;2022-10-31T02:07:45;31.33;;;22.27;;
1691;SDS011;843;52.054;8.552;2022-10-31T02:10:15;34.00;;;24.60;;
1691;SDS011;843;52.054;8.552;2022-10-31T02:12:43;35.07;;;21.70;;
1691;SDS011;843;52.054;8.552;2022-10-31T02:15:10;36.33;;;22.60;;
1691;SDS011;843;52.054;8.552;2022-10-31T02:17:37;35.90;;;24.00;;
1691;SDS011;843;52.054;8.552;2022-10-31T02:20:07;35.10;;;22.90;;
1691;SDS011;843;52.054;8.552;2022-10-31T02:23:01;36.70;;;23.80;;
1691;SDS011;843;52.054;8.552;2022-10-31T02:25:41;40.10;;;22.43;;
1691;SDS011;843;52.054;8.552;2022-10-31T02:28:30;39.03;;;22.77;;
1691;SDS011;843;52.054;8.552;2022-10-31T02:31:12;39.10;;;23.73;;
1691;SDS011;843;52.054;8.552;2022-10-31T02:33:45;35.27;;;23.20;;
1691;SDS011;843;52.054;8.552;2022-10-31T02:36:17;31.90;;;21.73;;
1691;SDS011;843;52.054;8.552;2022-10-31T02:38:50;27.80;;;19.67;;
1691;SDS011;843;52.054;8.552;2022-10-31T02:41:20;32.20;;;20.50;;
1691;SDS011;843;52.054;8.552;2022-10-31T02:43:57;31.33;;;19.93;;
1691;SDS011;843;52.054;8.552;2022-10-31T02:46:30;30.10;;;16.60;;
1691;SDS011;843;52.054;8.552;2022-10-31T02:49:01;29.10;;;19.10;;
1691;SDS011;843;52.054;8.552;2022-10-31T02:51:31;30.90;;;19.27;;
1691;SDS011;843;52.054;8.552;2022-10-31T02:53:58;31.23;;;19.40;;
1691;SDS011;843;52.054;8.552;2022-10-31T02:56:24;18.67;;;16.10;;
1691;SDS011;843;52.054;8.552;2022-10-31T02:58:51;21.87;;;15.40;;
1691;SDS011;843;52.054;8.552;2022-10-31T03:01:24;23.70;;;14.40;;
1691;SDS011;843;52.054;8.552;2022-10-31T03:04:00;28.57;;;16.07;;
1691;SDS011;843;52.054;8.552;2022-10-31T03:06:33;27.43;;;16.13;;
1691;SDS011;843;52.054;8.552;2022-10-31T03:09:03;21.93;;;15.23;;
1691;SDS011;843;52.054;8.552;2022-10-31T03:11:39;24.30;;;14.23;;
1691;SDS011;843;52.054;8.552;2022-10-31T03:14:10;19.73;;;14.40;;
1691;SDS011;843;52.054;8.552;2022-10-31T03:16:42;25.77;;;14.67;;
1691;SDS011;843;52.054;8.552;2022-10-31T03:19:12;22.53;;;14.03;;
1691;SDS011;843;52.054;8.552;2022-10-31T03:21:42;24.43;;;15.47;;
1691;SDS011;843;52.054;8.552;2022-10-31T03:24:11;24.17;;;17.60;;
1691;SDS011;843;52.054;8.552;2022-10-31T03:26:41;27.40;;;17.10;;
1691;SDS011;843;52.054;8.552;2022-10-31T03:29:10;21.83;;;15.77;;
1691;SDS011;843;52.054;8.552;2022-10-31T03:31:39;28.47;;;15.00;;
1691;SDS011;843;52.054;8.552;2022-10-31T03:34:09;26.83;;;16.03;;
1691;SDS011;843;52.054;8.552;2022-10-31T03:36:36;27.53;;;16.00;;
1691;SDS011;843;52.054;8.552;2022-10-31T03:39:04;24.53;;;17.30;;
1691;SDS011;843;52.054;8.552;2022-10-31T03:41:33;22.70;;;16.87;;
1691;SDS011;843;52.054;8.552;2022-10-31T03:44:03;22.43;;;16.43;;
1691;SDS011;843;52.054;8.552;2022-10-31T03:46:37;25.90;;;18.87;;
1691;SDS011;843;52.054;8.552;2022-10-31T03:49:05;24.43;;;15.53;;
1691;SDS011;843;52.054;8.552;2022-10-31T03:51:32;29.80;;;17.20;;
1691;SDS011;843;52.054;8.552;2022-10-31T03:54:04;34.70;;;21.50;;
1691;SDS011;843;52.054;8.552;2022-10-31T03:56:35;29.27;;;18.00;;
1691;SDS011;843;52.054;8.552;2022-10-31T03:59:04;29.07;;;18.10;;
1691;SDS011;843;52.054;8.552;2022-10-31T04:01:32;28.87;;;17.43;;
1691;SDS011;843;52.054;8.552;2022-10-31T04:04:01;29.60;;;19.93;;
1691;SDS011;843;52.054;8.552;2022-10-31T04:06:29;30.10;;;18.80;;
1691;SDS011;843;52.054;8.552;2022-10-31T04:08:58;27.57;;;19.07;;
1691;SDS011;843;52.054;8.552;2022-10-31T04:11:28;29.73;;;19.40;;
1691;SDS011;843;52.054;8.552;2022-10-31T04:13:57;32.40;;;20.27;;
1691;SDS011;843;52.054;8.552;2022-10-31T04:16:25;37.53;;;24.53;;
1691;SDS011;843;52.054;8.552;2022-10-31T04:18:52;38.57;;;24.50;;
1691;SDS011;843;52.054;8.552;2022-10-31T04:21:19;34.30;;;23.33;;
1691;SDS011;843;52.054;8.552;2022-10-31T04:23:46;30.20;;;21.23;;
1691;SDS011;843;52.054;8.552;2022-10-31T04:26:13;34.33;;;22.17;;
1691;SDS011;843;52.054;8.552;2022-10-31T04:28:40;29.90;;;21.80;;
1691;SDS011;843;52.054;8.552;2022-10-31T04:31:07;32.00;;;21.47;;
1691;SDS011;843;52.054;8.552;2022-10-31T04:33:35;30.63;;;21.60;;
1691;SDS011;843;52.054;8.552;2022-10-31T04:36:01;37.83;;;22.37;;
1691;SDS011;843;52.054;8.552;2022-10-31T04:38:28;32.73;;;20.47;;
1691;SDS011;843;52.054;8.552;2022-10-31T04:40:56;32.13;;;22.33;;
1691;SDS011;843;52.054;8.552;2022-10-31T04:43:23;32.73;;;21.60;;
1691;SDS011;843;52.054;8.552;2022-10-31T04:45:49;33.20;;;24.30;;
1691;SDS011;843;52.054;8.552;2022-10-31T04:48:16;36.17;;;22.23;;
1691;SDS011;843;52.054;8.552;2022-10-31T04:50:43;34.10;;;22.63;;
1691;SDS011;843;52.054;8.552;2022-10-31T04:53:10;29.30;;;21.13;;
1691;SDS011;843;52.054;8.552;2022-10-31T04:55:36;29.30;;;19.90;;
1691;SDS011;843;52.054;8.552;2022-10-31T04:58:04;30.70;;;20.63;;
1691;SDS011;843;52.054;8.552;2022-10-31T05:00:31;30.33;;;21.50;;
1691;SDS011;843;52.054;8.552;2022-10-31T05:02:57;27.00;;;19.47;;
1691;SDS011;843;52.054;8.552;2022-10-31T05:05:27;32.50;;;21.40;;
1691;SDS011;843;52.054;8.552;2022-10-31T05:07:54;34.20;;;20.10;;
1691;SDS011;843;52.054;8.552;2022-10-31T05:10:21;25.80;;;19.40;;
1691;SDS011;843;52.054;8.552;2022-10-31T05:12:50;30.70;;;20.53;;
1691;SDS011;843;52.054;8.552;2022-10-31T05:15:20;30.93;;;20.23;;
1691;SDS011;843;52.054;8.552;2022-10-31T05:17:47;32.70;;;20.97;;
1691;SDS011;843;52.054;8.552;2022-10-31T05:20:15;31.00;;;20.90;;
1691;SDS011;843;52.054;8.552;2022-10-31T05:22:42;28.77;;;20.43;;
1691;SDS011;843;52.054;8.552;2022-10-31T05:25:09;29.17;;;21.67;;
1691;SDS011;843;52.054;8.552;2022-10-31T05:27:38;36.90;;;25.67;;
1691;SDS011;843;52.054;8.552;2022-10-31T05:30:05;29.77;;;20.20;;
1691;SDS011;843;52.054;8.552;2022-10-31T05:32:37;38.63;;;20.90;;
1691;SDS011;843;52.054;8.552;2022-10-31T05:35:05;32.27;;;20.17;;
1691;SDS011;843;52.054;8.552;2022-10-31T05:37:33;28.27;;;18.47;;
1691;SDS011;843;52.054;8.552;2022-10-31T05:40:00;28.30;;;18.47;;
1691;SDS011;843;52.054;8.552;2022-10-31T05:42:26;28.87;;;20.57;;
1691;SDS011;843;52.054;8.552;2022-10-31T05:44:53;31.47;;;19.53;;
1691;SDS011;843;52.054;8.552;2022-10-31T05:47:19;28.97;;;20.37;;
1691;SDS011;843;52.054;8.552;2022-10-31T05:49:47;36.23;;;22.37;;
1691;SDS011;843;52.054;8.552;2022-10-31T05:52:14;32.27;;;20.53;;
1691;SDS011;843;52.054;8.552;2022-10-31T05:54:41;30.20;;;20.57;;
1691;SDS011;843;52.054;8.552;2022-10-31T05:57:07;26.57;;;19.53;;
1691;SDS011;843;52.054;8.552;2022-10-31T05:59:34;26.77;;;20.07;;
1691;SDS011;843;52.054;8.552;2022-10-31T06:02:01;30.10;;;20.00;;
1691;SDS011;843;52.054;8.552;2022-10-31T06:04:27;27.50;;;19.87;;
1691;SDS011;843;52.054;8.552;2022-10-31T06:06:55;31.00;;;20.50;;
1691;SDS011;843;52.054;8.552;2022-10-31T06:09:22;28.53;;;19.10;;
1691;SDS011;843;52.054;8.552;2022-10-31T06:11:49;29.53;;;19.30;;
1691;SDS011;843;52.054;8.552;2022-10-31T06:14:15;28.60;;;19.97;;
1691;SDS011;843;52.054;8.552;2022-10-31T06:16:42;33.83;;;21.20;;
1691;SDS011;843;52.054;8.552;2022-10-31T06:19:09;30.30;;;21.70;;
1691;SDS011;843;52.054;8.552;2022-10-31T06:21:35;31.93;;;22.17;;
1691;SDS011;843;52.054;8.552;2022-10-31T06:24:04;40.00;;;26.60;;
1691;SDS011;843;52.054;8.552;2022-10-31T06:26:31;34.53;;;23.23;;
1691;SDS011;843;52.054;8.552;2022-10-31T06:28:57;32.00;;;21.73;;
1691;SDS011;843;52.054;8.552;2022-10-31T06:31:24;32.70;;;22.37;;
1691;SDS011;843;52.054;8.552;2022-10-31T06:33:50;31.70;;;22.33;;
1691;SDS011;843;52.054;8.552;2022-10-31T06:36:27;31.83;;;21.90;;
1691;SDS011;843;52.054;8.552;2022-10-31T06:38:54;35.00;;;22.70;;
1691;SDS011;843;52.054;8.552;2022-10-31T06:41:22;33.20;;;22.23;;
1691;SDS011;843;52.054;8.552;2022-10-31T06:43:50;30.03;;;20.60;;
1691;SDS011;843;52.054;8.552;2022-10-31T06:46:17;34.30;;;20.00;;
1691;SDS011;843;52.054;8.552;2022-10-31T06:48:44;33.53;;;21.40;;
1691;SDS011;843;52.054;8.552;2022-10-31T06:51:10;31.73;;;19.73;;
1691;SDS011;843;52.054;8.552;2022-10-31T06:53:37;31.80;;;22.33;;
1691;SDS011;843;52.054;8.552;2022-10-31T06:56:04;31.60;;;21.60;;
1691;SDS011;843;52.054;8.552;2022-10-31T06:58:32;36.50;;;21.03;;
1691;SDS011;843;52.054;8.552;2022-10-31T07:00:59;28.53;;;21.77;;
1691;SDS011;843;52.054;8.552;2022-10-31T07:03:26;30.93;;;20.10;;
1691;SDS011;843;52.054;8.552;2022-10-31T07:05:54;32.80;;;20.80;;
1691;SDS011;843;52.054;8.552;2022-10-31T07:08:21;41.57;;;22.90;;
1691;SDS011;843;52.054;8.552;2022-10-31T07:10:50;33.17;;;21.80;;
1691;SDS011;843;52.054;8.552;2022-10-31T07:13:17;29.43;;;20.30;;
1691;SDS011;843;52.054;8.552;2022-10-31T07:15:48;28.60;;;21.20;;
1691;SDS011;843;52.054;8.552;2022-10-31T07:18:14;28.57;;;21.90;;
1691;SDS011;843;52.054;8.552;2022-10-31T07:20:41;32.23;;;21.27;;
1691;SDS011;843;52.054;8.552;2022-10-31T07:23:08;34.40;;;20.60;;
1691;SDS011;843;52.054;8.552;2022-10-31T07:25:35;30.67;;;21.00;;
1691;SDS011;843;52.054;8.552;2022-10-31T07:28:02;27.73;;;17.87;;
1691;SDS011;843;52.054;8.552;2022-10-31T07:30:29;32.60;;;18.40;;
1691;SDS011;843;52.054;8.552;2022-10-31T07:32:57;25.80;;;17.67;;
1691;SDS011;843;52.054;8.552;2022-10-31T07:35:24;20.67;;;15.57;;
1691;SDS011;843;52.054;8.552;2022-10-31T07:37:51;25.00;;;16.90;;
1691;SDS011;843;52.054;8.552;2022-10-31T07:40:18;26.50;;;15.80;;
1691;SDS011;843;52.054;8.552;2022-10-31T07:42:46;26.60;;;16.87;;
1691;SDS011;843;52.054;8.552;2022-10-31T07:45:14;18.27;;;14.73;;
1691;SDS011;843;52.054;8.552;2022-10-31T07:47:42;18.20;;;14.10;;
1691;SDS011;843;52.054;8.552;2022-10-31T07:50:13;22.77;;;14.67;;
1691;SDS011;843;52.054;8.552;2022-10-31T07:52:40;22.00;;;14.73;;
1691;SDS011;843;52.054;8.552;2022-10-31T07:55:07;21.13;;;13.80;;
1691;SDS011;843;52.054;8.552;2022-10-31T07:57:34;20.63;;;14.87;;
1691;SDS011;843;52.054;8.552;2022-10-31T08:00:02;17.30;;;13.70;;
1691;SDS011;843;52.054;8.552;2022-10-31T08:02:29;21.30;;;14.40;;
1691;SDS011;843;52.054;8.552;2022-10-31T08:04:55;23.37;;;15.47;;
1691;SDS011;843;52.054;8.552;2022-10-31T08:07:23;21.93;;;14.27;;
1691;SDS011;843;52.054;8.552;2022-10-31T08:09:50;24.37;;;14.37;;
1691;SDS011;843;52.054;8.552;2022-10-31T08:12:17;18.53;;;13.90;;
1691;SDS011;843;52.054;8.552;2022-10-31T08:14:43;21.73;;;16.20;;
1691;SDS011;843;52.054;8.552;2022-10-31T08:17:10;17.87;;;14.50;;
1691;SDS011;843;52.054;8.552;2022-10-31T08:19:37;20.43;;;14.73;;
1691;SDS011;843;52.054;8.552;2022-10-31T08:22:04;23.00;;;14.67;;
1691;SDS011;843;52.054;8.552;2022-10-31T08:24:31;22.37;;;15.33;;
1691;SDS011;843;52.054;8.552;2022-10-31T08:26:58;20.07;;;16.13;;
1691;SDS011;843;52.054;8.552;2022-10-31T08:29:25;20.30;;;15.27;;
1691;SDS011;843;52.054;8.552;2022-10-31T08:31:51;20.13;;;15.47;;
1691;SDS011;843;52.054;8.552;2022-10-31T08:34:18;19.43;;;15.97;;
1691;SDS011;843;52.054;8.552;2022-10-31T08:36:44;20.80;;;14.80;;
1691;SDS011;843;52.054;8.552;2022-10-31T08:39:11;17.30;;;15.50;;
1691;SDS011;843;52.054;8.552;2022-10-31T08:41:39;21.23;;;15.40;;
1691;SDS011;843;52.054;8.552;2022-10-31T08:44:05;18.37;;;14.57;;
1691;SDS011;843;52.054;8.552;2022-10-31T08:46:32;21.27;;;15.13;;
1691;SDS011;843;52.054;8.552;2022-10-31T08:48:59;19.80;;;15.47;;
1691;SDS011;843;52.054;8.552;2022-10-31T08:51:26;22.47;;;16.60;;
1691;SDS011;843;52.054;8.552;2022-10-31T08:53:52;25.87;;;17.50;;
1691;SDS011;843;52.054;8.552;2022-10-31T08:56:19;21.87;;;16.30;;
1691;SDS011;843;52.054;8.552;2022-10-31T08:58:48;26.67;;;18.27;;
1691;SDS011;843;52.054;8.552;2022-10-31T09:01:16;23.23;;;16.83;;
1691;SDS011;843;52.054;8.552;2022-10-31T09:03:42;25.73;;;17.40;;
1691;SDS011;843;52.054;8.552;2022-10-31T09:06:11;23.10;;;17.40;;
1691;SDS011;843;52.054;8.552;2022-10-31T09:08:38;23.50;;;18.47;;
1691;SDS011;843;52.054;8.552;2022-10-31T09:11:05;25.43;;;16.40;;
1691;SDS011;843;52.054;8.552;2022-10-31T09:13:32;22.27;;;16.73;;
1691;SDS011;843;52.054;8.552;2022-10-31T09:16:00;23.60;;;16.57;;
1691;SDS011;843;52.054;8.552;2022-10-31T09:18:27;22.73;;;17.23;;
1691;SDS011;843;52.054;8.552;2022-10-31T09:20:54;24.90;;;18.90;;
1691;SDS011;843;52.054;8.552;2022-10-31T09:23:23;23.40;;;18.53;;
1691;SDS011;843;52.054;8.552;2022-10-31T09:25:50;28.20;;;18.87;;
1691;SDS011;843;52.054;8.552;2022-10-31T09:28:18;22.10;;;18.53;;
1691;SDS011;843;52.054;8.552;2022-10-31T09:30:46;25.83;;;18.00;;
1691;SDS011;843;52.054;8.552;2022-10-31T09:33:15;24.27;;;18.27;;
1691;SDS011;843;52.054;8.552;2022-10-31T09:35:41;27.97;;;19.60;;
1691;SDS011;843;52.054;8.552;2022-10-31T09:38:09;27.70;;;19.70;;
1691;SDS011;843;52.054;8.552;2022-10-31T09:40:37;29.37;;;19.97;;
1691;SDS011;843;52.054;8.552;2022-10-31T09:43:08;29.93;;;20.30;;
1691;SDS011;843;52.054;8.552;2022-10-31T09:45:42;36.47;;;21.67;;
1691;SDS011;843;52.054;8.552;2022-10-31T09:48:21;34.80;;;22.50;;
1691;SDS011;843;52.054;8.552;2022-10-31T09:50:55;33.47;;;23.10;;
1691;SDS011;843;52.054;8.552;2022-10-31T09:53:26;29.70;;;21.00;;
1691;SDS011;843;52.054;8.552;2022-10-31T09:55:56;31.10;;;22.67;;
1691;SDS011;843;52.054;8.552;2022-10-31T09:58:29;27.73;;;21.77;;
1691;SDS011;843;52.054;8.552;2022-10-31T10:00:57;31.90;;;21.53;;
1691;SDS011;843;52.054;8.552;2022-10-31T10:03:30;32.77;;;23.00;;
1691;SDS011;843;52.054;8.552;2022-10-31T10:06:02;27.27;;;21.30;;
1691;SDS011;843;52.054;8.552;2022-10-31T10:08:34;24.67;;;19.70;;
1691;SDS011;843;52.054;8.552;2022-10-31T10:11:04;32.30;;;21.97;;
1691;SDS011;843;52.054;8.552;2022-10-31T10:13:44;31.67;;;21.70;;
1691;SDS011;843;52.054;8.552;2022-10-31T10:16:32;29.47;;;21.60;;
1691;SDS011;843;52.054;8.552;2022-10-31T10:19:11;30.50;;;21.07;;
1691;SDS011;843;52.054;8.552;2022-10-31T10:21:48;27.37;;;21.70;;
1691;SDS011;843;52.054;8.552;2022-10-31T10:24:25;32.73;;;20.90;;
1691;SDS011;843;52.054;8.552;2022-10-31T10:26:59;30.47;;;20.83;;
1691;SDS011;843;52.054;8.552;2022-10-31T10:29:33;29.27;;;20.50;;
1691;SDS011;843;52.054;8.552;2022-10-31T10:32:04;24.20;;;20.70;;
1691;SDS011;843;52.054;8.552;2022-10-31T10:34:39;27.40;;;21.00;;
1691;SDS011;843;52.054;8.552;2022-10-31T10:37:22;33.20;;;20.60;;
1691;SDS011;843;52.054;8.552;2022-10-31T10:39:53;28.03;;;20.00;;
1691;SDS011;843;52.054;8.552;2022-10-31T10:42:22;30.10;;;20.27;;
1691;SDS011;843;52.054;8.552;2022-10-31T10:45:13;30.70;;;20.63;;
1691;SDS011;843;52.054;8.552;2022-10-31T10:48:01;32.47;;;21.20;;
1691;SDS011;843;52.054;8.552;2022-10-31T10:50:36;29.60;;;20.57;;
1691;SDS011;843;52.054;8.552;2022-10-31T10:53:08;28.53;;;19.93;;
1691;SDS011;843;52.054;8.552;2022-10-31T10:55:47;29.27;;;21.23;;
1691;SDS011;843;52.054;8.552;2022-10-31T10:58:17;27.67;;;18.83;;
1691;SDS011;843;52.054;8.552;2022-10-31T11:00:44;29.50;;;19.67;;
1691;SDS011;843;52.054;8.552;2022-10-31T11:03:12;29.80;;;17.83;;
1691;SDS011;843;52.054;8.552;2022-10-31T11:05:41;27.60;;;19.63;;
1691;SDS011;843;52.054;8.552;2022-10-31T11:08:11;27.27;;;18.00;;
1691;SDS011;843;52.054;8.552;2022-10-31T11:10:38;24.50;;;17.77;;
1691;SDS011;843;52.054;8.552;2022-10-31T11:13:06;24.30;;;17.63;;
1691;SDS011;843;52.054;8.552;2022-10-31T11:15:50;24.80;;;17.20;;
1691;SDS011;843;52.054;8.552;2022-10-31T11:18:20;21.40;;;16.97;;
1691;SDS011;843;52.054;8.552;2022-10-31T11:20:51;28.60;;;17.90;;
1691;SDS011;843;52.054;8.552;2022-10-31T11:23:20;27.80;;;16.53;;
1691;SDS011;843;52.054;8.552;2022-10-31T11:25:49;19.70;;;15.50;;
1691;SDS011;843;52.054;8.552;2022-10-31T11:28:20;27.77;;;14.90;;
1691;SDS011;843;52.054;8.552;2022-10-31T11:30:47;21.60;;;15.53;;
1691;SDS011;843;52.054;8.552;2022-10-31T11:33:19;19.43;;;14.40;;
1691;SDS011;843;52.054;8.552;2022-10-31T11:35:52;21.47;;;13.73;;
1691;SDS011;843;52.054;8.552;2022-10-31T11:38:20;18.90;;;14.27;;
1691;SDS011;843;52.054;8.552;2022-10-31T11:40:54;23.10;;;13.93;;
1691;SDS011;843;52.054;8.552;2022-10-31T11:43:22;22.30;;;15.00;;
1691;SDS011;843;52.054;8.552;2022-10-31T11:45:49;20.80;;;14.17;;
1691;SDS011;843;52.054;8.552;2022-10-31T11:48:16;22.00;;;14.17;;
1691;SDS011;843;52.054;8.552;2022-10-31T11:50:47;18.43;;;14.43;;
1691;SDS011;843;52.054;8.552;2022-10-31T11:53:16;19.50;;;15.13;;
1691;SDS011;843;52.054;8.552;2022-10-31T11:55:44;25.50;;;17.40;;
1691;SDS011;843;52.054;8.552;2022-10-31T11:58:19;22.80;;;14.57;;
1691;SDS011;843;52.054;8.552;2022-10-31T12:00:48;21.53;;;14.87;;
1691;SDS011;843;52.054;8.552;2022-10-31T12:03:26;25.20;;;15.90;;
1691;SDS011;843;52.054;8.552;2022-10-31T12:05:55;20.20;;;15.40;;
1691;SDS011;843;52.054;8.552;2022-10-31T12:08:28;23.37;;;14.97;;
1691;SDS011;843;52.054;8.552;2022-10-31T12:10:57;41.03;;;14.27;;
1691;SDS011;843;52.054;8.552;2022-10-31T12:13:30;21.20;;;15.80;;
1691;SDS011;843;52.054;8.552;2022-10-31T12:16:00;25.37;;;16.10;;
1691;SDS011;843;52.054;8.552;2022-10-31T12:18:44;21.43;;;14.63;;
1691;SDS011;843;52.054;8.552;2022-10-31T12:21:20;19.93;;;15.10;;
1691;SDS011;843;52.054;8.552;2022-10-31T12:23:58;21.87;;;15.30;;
1691;SDS011;843;52.054;8.552;2022-10-31T12:26:32;20.17;;;14.10;;
1691;SDS011;843;52.054;8.552;2022-10-31T12:29:08;21.23;;;14.40;;
1691;SDS011;843;52.054;8.552;2022-10-31T12:31:45;19.40;;;14.17;;
1691;SDS011;843;52.054;8.552;2022-10-31T12:34:23;26.50;;;15.60;;
1691;SDS011;843;52.054;8.552;2022-10-31T12:37:11;23.13;;;14.50;;
1691;SDS011;843;52.054;8.552;2022-10-31T12:39:44;23.50;;;13.90;;
1691;SDS011;843;52.054;8.552;2022-10-31T12:42:18;23.20;;;13.97;;
1691;SDS011;843;52.054;8.552;2022-10-31T12:45:00;17.50;;;12.53;;
1691;SDS011;843;52.054;8.552;2022-10-31T12:47:58;18.03;;;12.37;;
1691;SDS011;843;52.054;8.552;2022-10-31T12:50:49;25.10;;;14.17;;
1691;SDS011;843;52.054;8.552;2022-10-31T12:53:25;16.60;;;12.67;;
1691;SDS011;843;52.054;8.552;2022-10-31T12:56:02;21.70;;;13.17;;
1691;SDS011;843;52.054;8.552;2022-10-31T12:58:38;22.13;;;12.30;;
1691;SDS011;843;52.054;8.552;2022-10-31T13:01:11;17.67;;;11.97;;
1691;SDS011;843;52.054;8.552;2022-10-31T13:03:42;17.70;;;12.10;;
1691;SDS011;843;52.054;8.552;2022-10-31T13:06:13;20.87;;;12.47;;
1691;SDS011;843;52.054;8.552;2022-10-31T13:08:44;18.97;;;10.90;;
1691;SDS011;843;52.054;8.552;2022-10-31T13:11:15;18.77;;;11.10;;
1691;SDS011;843;52.054;8.552;2022-10-31T13:13:47;15.20;;;12.40;;
1691;SDS011;843;52.054;8.552;2022-10-31T13:16:21;19.50;;;12.27;;
1691;SDS011;843;52.054;8.552;2022-10-31T13:18:52;15.13;;;10.67;;
1691;SDS011;843;52.054;8.552;2022-10-31T13:21:22;14.53;;;9.87;;
1691;SDS011;843;52.054;8.552;2022-10-31T13:23:50;17.20;;;11.23;;
1691;SDS011;843;52.054;8.552;2022-10-31T13:26:21;16.27;;;10.70;;
1691;SDS011;843;52.054;8.552;2022-10-31T13:28:54;17.67;;;10.93;;
1691;SDS011;843;52.054;8.552;2022-10-31T13:31:23;18.97;;;11.17;;
1691;SDS011;843;52.054;8.552;2022-10-31T13:33:51;15.40;;;10.20;;
1691;SDS011;843;52.054;8.552;2022-10-31T13:36:21;16.30;;;11.50;;
1691;SDS011;843;52.054;8.552;2022-10-31T13:38:53;18.90;;;11.30;;
1691;SDS011;843;52.054;8.552;2022-10-31T13:44:10;16.27;;;10.23;;
1691;SDS011;843;52.054;8.552;2022-10-31T13:46:40;19.70;;;11.43;;
1691;SDS011;843;52.054;8.552;2022-10-31T13:49:21;20.33;;;10.50;;
1691;SDS011;843;52.054;8.552;2022-10-31T13:51:50;17.63;;;9.97;;
1691;SDS011;843;52.054;8.552;2022-10-31T13:54:21;23.07;;;10.33;;
1691;SDS011;843;52.054;8.552;2022-10-31T13:56:51;11.67;;;9.63;;
1691;SDS011;843;52.054;8.552;2022-10-31T13:59:19;20.07;;;9.80;;
1691;SDS011;843;52.054;8.552;2022-10-31T14:01:48;14.30;;;9.63;;
1691;SDS011;843;52.054;8.552;2022-10-31T14:04:17;13.63;;;9.50;;
1691;SDS011;843;52.054;8.552;2022-10-31T14:06:49;21.20;;;10.00;;
1691;SDS011;843;52.054;8.552;2022-10-31T14:09:32;13.73;;;9.00;;
1691;SDS011;843;52.054;8.552;2022-10-31T14:12:03;13.60;;;8.20;;
1691;SDS011;843;52.054;8.552;2022-10-31T14:14:33;12.43;;;8.60;;
1691;SDS011;843;52.054;8.552;2022-10-31T14:17:12;12.80;;;9.00;;
1691;SDS011;843;52.054;8.552;2022-10-31T14:19:55;9.80;;;7.50;;
1691;SDS011;843;52.054;8.552;2022-10-31T14:22:23;11.60;;;8.80;;
1691;SDS011;843;52.054;8.552;2022-10-31T14:24:49;20.27;;;9.30;;
1691;SDS011;843;52.054;8.552;2022-10-31T14:30:15;10.97;;;8.80;;
1691;SDS011;843;52.054;8.552;2022-10-31T14:32:44;15.57;;;9.37;;
1691;SDS011;843;52.054;8.552;2022-10-31T14:35:14;16.03;;;9.17;;
1691;SDS011;843;52.054;8.552;2022-10-31T14:37:51;12.97;;;9.10;;
1691;SDS011;843;52.054;8.552;2022-10-31T14:40:27;12.40;;;8.27;;
1691;SDS011;843;52.054;8.552;2022-10-31T14:46:00;12.43;;;8.37;;
1691;SDS011;843;52.054;8.552;2022-10-31T14:48:32;12.77;;;8.83;;
1691;SDS011;843;52.054;8.552;2022-10-31T14:51:08;10.50;;;8.77;;
1691;SDS011;843;52.054;8.552;2022-10-31T14:53:39;11.63;;;8.93;;
1691;SDS011;843;52.054;8.552;2022-10-31T14:56:10;9.80;;;8.37;;
1691;SDS011;843;52.054;8.552;2022-10-31T14:58:39;15.93;;;9.63;;
1691;SDS011;843;52.054;8.552;2022-10-31T15:01:07;15.10;;;9.90;;
1691;SDS011;843;52.054;8.552;2022-10-31T15:03:44;14.97;;;9.73;;
1691;SDS011;843;52.054;8.552;2022-10-31T15:06:13;12.93;;;9.73;;
1691;SDS011;843;52.054;8.552;2022-10-31T15:08:43;16.70;;;8.00;;
1691;SDS011;843;52.054;8.552;2022-10-31T15:11:11;11.20;;;8.57;;
1691;SDS011;843;52.054;8.552;2022-10-31T15:13:47;12.03;;;8.80;;
1691;SDS011;843;52.054;8.552;2022-10-31T15:16:15;14.03;;;9.03;;
1691;SDS011;843;52.054;8.552;2022-10-31T15:18:52;13.73;;;8.13;;
1691;SDS011;843;52.054;8.552;2022-10-31T15:21:20;13.07;;;9.10;;
1691;SDS011;843;52.054;8.552;2022-10-31T15:23:49;17.07;;;9.13;;
1691;SDS011;843;52.054;8.552;2022-10-31T15:26:17;12.30;;;8.53;;
1691;SDS011;843;52.054;8.552;2022-10-31T15:28:56;12.30;;;8.27;;